sensor_id;sensor_type;location;lat;lon;timestamp;temperature;humidity
84971;DHT22;75278;51.926;4.562;2024-03-08T00:01:09;4.5;87
84971;DHT22;75278;51.926;4.562;2024-03-08T00:03:09;4.5;87
84971;DHT22;75278;51.926;4.562;2024-03-08T00:05:09;4.5;87
84971;DHT22;75278;51.926;4.562;2024-03-08T00:07:09;4.5;87
84971;DHT22;75278;51.926;4.562;2024-03-08T00:09:09;4.4;87
84971;DHT22;75278;51.926;4.562;2024-03-08T00:11:09;4.5;87
84971;DHT22;75278;51.926;4.562;2024-03-08T00:13:09;4.5;87
84971;DHT22;75278;51.926;4.562;2024-03-08T00:15:09;4.4;87
84971;DHT22;75278;51.926;4.562;2024-03-08T00:15:26;4.4;87
84971;DHT22;75278;51.926;4.562;2024-03-08T00:17:09;4.4;87
84971;DHT22;75278;51.926;4.562;2024-03-08T00:19:12;4.4;87
84971;DHT22;75278;51.926;4.562;2024-03-08T00:21:09;4.4;87
84971;DHT22;75278;51.926;4.562;2024-03-08T00:23:09;4.4;87
84971;DHT22;75278;51.926;4.562;2024-03-08T00:25:09;4.4;87
84971;DHT22;75278;51.926;4.562;2024-03-08T00:27:09;4.4;87
84971;DHT22;75278;51.926;4.562;2024-03-08T00:29:09;4.4;86
84971;DHT22;75278;51.926;4.562;2024-03-08T00:31:09;4.4;86
84971;DHT22;75278;51.926;4.562;2024-03-08T00:33:09;4.4;86
84971;DHT22;75278;51.926;4.562;2024-03-08T00:35:09;4.4;86
84971;DHT22;75278;51.926;4.562;2024-03-08T00:37:09;4.4;86
84971;DHT22;75278;51.926;4.562;2024-03-08T00:39:09;4.3;86
84971;DHT22;75278;51.926;4.562;2024-03-08T00:41:09;4.3;86
84971;DHT22;75278;51.926;4.562;2024-03-08T00:43:09;4.3;86
84971;DHT22;75278;51.926;4.562;2024-03-08T00:45:09;4.3;86
84971;DHT22;75278;51.926;4.562;2024-03-08T00:47:09;4.3;86
84971;DHT22;75278;51.926;4.562;2024-03-08T00:49:09;4.3;86
84971;DHT22;75278;51.926;4.562;2024-03-08T00:51:09;4.3;86
84971;DHT22;75278;51.926;4.562;2024-03-08T00:53:09;4.3;86
84971;DHT22;75278;51.926;4.562;2024-03-08T00:55:09;4.2;86
84971;DHT22;75278;51.926;4.562;2024-03-08T00:57:09;4.3;86
84971;DHT22;75278;51.926;4.562;2024-03-08T00:59:09;4.3;86
84971;DHT22;75278;51.926;4.562;2024-03-08T01:01:09;4.3;86
84971;DHT22;75278;51.926;4.562;2024-03-08T01:03:09;4.3;86
84971;DHT22;75278;51.926;4.562;2024-03-08T01:05:09;4.2;86
84971;DHT22;75278;51.926;4.562;2024-03-08T01:07:09;4.1;86
84971;DHT22;75278;51.926;4.562;2024-03-08T01:09:09;4.2;86
84971;DHT22;75278;51.926;4.562;2024-03-08T01:11:09;4.1;86
84971;DHT22;75278;51.926;4.562;2024-03-08T01:13:09;4.1;86
84971;DHT22;75278;51.926;4.562;2024-03-08T01:15:09;4.1;86
84971;DHT22;75278;51.926;4.562;2024-03-08T01:17:09;4.1;86
84971;DHT22;75278;51.926;4.562;2024-03-08T01:19:09;4.1;86
84971;DHT22;75278;51.926;4.562;2024-03-08T01:21:09;4.1;86
84971;DHT22;75278;51.926;4.562;2024-03-08T01:23:09;4.1;85
84971;DHT22;75278;51.926;4.562;2024-03-08T01:25:09;4.1;85
84971;DHT22;75278;51.926;4.562;2024-03-08T01:27:09;4.1;85
84971;DHT22;75278;51.926;4.562;2024-03-08T01:29:09;4.1;85
84971;DHT22;75278;51.926;4.562;2024-03-08T01:31:09;4.1;85
84971;DHT22;75278;51.926;4.562;2024-03-08T01:33:09;4.1;85
84971;DHT22;75278;51.926;4.562;2024-03-08T01:35:09;4.1;84
84971;DHT22;75278;51.926;4.562;2024-03-08T01:37:09;4.2;84
84971;DHT22;75278;51.926;4.562;2024-03-08T01:39:09;4.0;84
84971;DHT22;75278;51.926;4.562;2024-03-08T01:41:09;3.4;86
84971;DHT22;75278;51.926;4.562;2024-03-08T01:43:16;3.2;88
84971;DHT22;75278;51.926;4.562;2024-03-08T01:45:09;3.2;88
84971;DHT22;75278;51.926;4.562;2024-03-08T01:47:09;3.2;88
84971;DHT22;75278;51.926;4.562;2024-03-08T01:49:09;3.3;88
84971;DHT22;75278;51.926;4.562;2024-03-08T01:51:09;3.1;89
84971;DHT22;75278;51.926;4.562;2024-03-08T01:53:09;3.0;89
84971;DHT22;75278;51.926;4.562;2024-03-08T01:55:09;3.0;90
84971;DHT22;75278;51.926;4.562;2024-03-08T01:57:10;3.0;90
84971;DHT22;75278;51.926;4.562;2024-03-08T01:59:09;3.0;90
84971;DHT22;75278;51.926;4.562;2024-03-08T02:01:09;3.0;89
84971;DHT22;75278;51.926;4.562;2024-03-08T02:03:09;3.0;89
84971;DHT22;75278;51.926;4.562;2024-03-08T02:05:09;3.0;90
84971;DHT22;75278;51.926;4.562;2024-03-08T02:07:09;2.9;90
84971;DHT22;75278;51.926;4.562;2024-03-08T02:09:09;2.9;90
84971;DHT22;75278;51.926;4.562;2024-03-08T02:11:09;2.9;90
84971;DHT22;75278;51.926;4.562;2024-03-08T02:13:09;2.9;90
84971;DHT22;75278;51.926;4.562;2024-03-08T02:15:09;2.9;89
84971;DHT22;75278;51.926;4.562;2024-03-08T02:15:26;2.9;89
84971;DHT22;75278;51.926;4.562;2024-03-08T02:17:09;3.0;89
84971;DHT22;75278;51.926;4.562;2024-03-08T02:19:11;2.9;89
84971;DHT22;75278;51.926;4.562;2024-03-08T02:21:09;2.9;89
84971;DHT22;75278;51.926;4.562;2024-03-08T02:23:09;2.8;89
84971;DHT22;75278;51.926;4.562;2024-03-08T02:25:10;2.8;89
84971;DHT22;75278;51.926;4.562;2024-03-08T02:27:09;2.8;89
84971;DHT22;75278;51.926;4.562;2024-03-08T02:29:09;2.7;90
84971;DHT22;75278;51.926;4.562;2024-03-08T02:31:09;2.7;90
84971;DHT22;75278;51.926;4.562;2024-03-08T02:33:09;2.7;90
84971;DHT22;75278;51.926;4.562;2024-03-08T02:35:09;2.7;90
84971;DHT22;75278;51.926;4.562;2024-03-08T02:37:09;2.8;90
84971;DHT22;75278;51.926;4.562;2024-03-08T02:39:09;2.7;90
84971;DHT22;75278;51.926;4.562;2024-03-08T02:41:09;2.7;90
84971;DHT22;75278;51.926;4.562;2024-03-08T02:43:09;2.7;90
84971;DHT22;75278;51.926;4.562;2024-03-08T02:45:09;2.7;90
84971;DHT22;75278;51.926;4.562;2024-03-08T02:47:09;2.7;90
84971;DHT22;75278;51.926;4.562;2024-03-08T02:49:09;2.6;90
84971;DHT22;75278;51.926;4.562;2024-03-08T02:51:09;2.6;90
84971;DHT22;75278;51.926;4.562;2024-03-08T02:53:09;2.6;90
84971;DHT22;75278;51.926;4.562;2024-03-08T02:55:09;2.6;90
84971;DHT22;75278;51.926;4.562;2024-03-08T02:57:09;2.5;90
84971;DHT22;75278;51.926;4.562;2024-03-08T02:59:09;2.6;90
84971;DHT22;75278;51.926;4.562;2024-03-08T03:01:09;2.6;90
84971;DHT22;75278;51.926;4.562;2024-03-08T03:03:09;2.6;89
84971;DHT22;75278;51.926;4.562;2024-03-08T03:05:09;2.6;89
84971;DHT22;75278;51.926;4.562;2024-03-08T03:07:09;2.6;89
84971;DHT22;75278;51.926;4.562;2024-03-08T03:09:09;2.6;89
84971;DHT22;75278;51.926;4.562;2024-03-08T03:11:09;2.6;89
84971;DHT22;75278;51.926;4.562;2024-03-08T03:13:09;2.6;89
84971;DHT22;75278;51.926;4.562;2024-03-08T03:15:10;2.6;88
84971;DHT22;75278;51.926;4.562;2024-03-08T03:17:09;2.6;88
84971;DHT22;75278;51.926;4.562;2024-03-08T03:19:09;2.6;88
84971;DHT22;75278;51.926;4.562;2024-03-08T03:21:09;2.6;88
84971;DHT22;75278;51.926;4.562;2024-03-08T03:23:09;2.5;88
84971;DHT22;75278;51.926;4.562;2024-03-08T03:25:09;2.6;88
84971;DHT22;75278;51.926;4.562;2024-03-08T03:27:09;2.5;88
84971;DHT22;75278;51.926;4.562;2024-03-08T03:29:09;2.5;88
84971;DHT22;75278;51.926;4.562;2024-03-08T03:31:09;2.5;88
84971;DHT22;75278;51.926;4.562;2024-03-08T03:33:09;2.5;88
84971;DHT22;75278;51.926;4.562;2024-03-08T03:35:09;2.5;88
84971;DHT22;75278;51.926;4.562;2024-03-08T03:37:09;2.4;88
84971;DHT22;75278;51.926;4.562;2024-03-08T03:39:09;2.5;88
84971;DHT22;75278;51.926;4.562;2024-03-08T03:41:09;2.5;88
84971;DHT22;75278;51.926;4.562;2024-03-08T03:43:09;2.5;88
84971;DHT22;75278;51.926;4.562;2024-03-08T03:45:09;2.4;88
84971;DHT22;75278;51.926;4.562;2024-03-08T03:47:09;2.4;88
84971;DHT22;75278;51.926;4.562;2024-03-08T03:49:09;2.4;88
84971;DHT22;75278;51.926;4.562;2024-03-08T03:51:09;2.3;88
84971;DHT22;75278;51.926;4.562;2024-03-08T03:53:09;2.3;88
84971;DHT22;75278;51.926;4.562;2024-03-08T03:55:09;2.3;88
84971;DHT22;75278;51.926;4.562;2024-03-08T03:57:09;2.2;88
84971;DHT22;75278;51.926;4.562;2024-03-08T03:59:09;2.3;88
84971;DHT22;75278;51.926;4.562;2024-03-08T04:01:09;2.3;88
84971;DHT22;75278;51.926;4.562;2024-03-08T04:03:09;2.2;88
84971;DHT22;75278;51.926;4.562;2024-03-08T04:05:09;2.2;88
84971;DHT22;75278;51.926;4.562;2024-03-08T04:07:09;2.2;88
84971;DHT22;75278;51.926;4.562;2024-03-08T04:09:09;2.2;88
84971;DHT22;75278;51.926;4.562;2024-03-08T04:11:09;2.2;88
84971;DHT22;75278;51.926;4.562;2024-03-08T04:11:50;2.1;88
84971;DHT22;75278;51.926;4.562;2024-03-08T04:13:06;2.1;88
84971;DHT22;75278;51.926;4.562;2024-03-08T04:15:06;2.2;88
84971;DHT22;75278;51.926;4.562;2024-03-08T04:17:06;2.2;88
84971;DHT22;75278;51.926;4.562;2024-03-08T04:19:06;2.2;88
84971;DHT22;75278;51.926;4.562;2024-03-08T04:21:06;2.2;88
84971;DHT22;75278;51.926;4.562;2024-03-08T04:23:06;2.8;86
84971;DHT22;75278;51.926;4.562;2024-03-08T04:25:06;3.1;84
84971;DHT22;75278;51.926;4.562;2024-03-08T04:27:06;3.2;83
84971;DHT22;75278;51.926;4.562;2024-03-08T04:29:06;3.4;82
84971;DHT22;75278;51.926;4.562;2024-03-08T04:31:06;3.5;81
84971;DHT22;75278;51.926;4.562;2024-03-08T04:33:06;3.4;81
84971;DHT22;75278;51.926;4.562;2024-03-08T04:35:06;3.5;80
84971;DHT22;75278;51.926;4.562;2024-03-08T04:37:06;3.5;80
84971;DHT22;75278;51.926;4.562;2024-03-08T04:39:06;3.5;80
84971;DHT22;75278;51.926;4.562;2024-03-08T04:41:06;3.4;80
84971;DHT22;75278;51.926;4.562;2024-03-08T04:43:06;3.4;80
84971;DHT22;75278;51.926;4.562;2024-03-08T04:45:06;3.3;80
84971;DHT22;75278;51.926;4.562;2024-03-08T04:47:06;3.3;80
84971;DHT22;75278;51.926;4.562;2024-03-08T04:49:06;3.3;81
84971;DHT22;75278;51.926;4.562;2024-03-08T04:51:06;3.2;80
84971;DHT22;75278;51.926;4.562;2024-03-08T04:53:06;3.2;80
84971;DHT22;75278;51.926;4.562;2024-03-08T04:55:06;3.2;80
84971;DHT22;75278;51.926;4.562;2024-03-08T04:57:06;3.2;80
84971;DHT22;75278;51.926;4.562;2024-03-08T04:59:06;3.2;80
84971;DHT22;75278;51.926;4.562;2024-03-08T05:01:06;3.2;80
84971;DHT22;75278;51.926;4.562;2024-03-08T05:03:06;3.2;80
84971;DHT22;75278;51.926;4.562;2024-03-08T05:05:06;3.2;80
84971;DHT22;75278;51.926;4.562;2024-03-08T05:07:06;3.2;80
84971;DHT22;75278;51.926;4.562;2024-03-08T05:09:06;3.2;80
84971;DHT22;75278;51.926;4.562;2024-03-08T05:11:06;3.1;80
84971;DHT22;75278;51.926;4.562;2024-03-08T05:13:06;3.2;80
84971;DHT22;75278;51.926;4.562;2024-03-08T05:15:06;3.2;80
84971;DHT22;75278;51.926;4.562;2024-03-08T05:17:06;3.1;80
84971;DHT22;75278;51.926;4.562;2024-03-08T05:19:06;3.1;80
84971;DHT22;75278;51.926;4.562;2024-03-08T05:21:06;3.1;80
84971;DHT22;75278;51.926;4.562;2024-03-08T05:23:06;3.1;80
84971;DHT22;75278;51.926;4.562;2024-03-08T05:25:06;3.1;80
84971;DHT22;75278;51.926;4.562;2024-03-08T05:27:06;3.1;80
84971;DHT22;75278;51.926;4.562;2024-03-08T05:29:06;3.1;80
84971;DHT22;75278;51.926;4.562;2024-03-08T05:31:06;3.1;80
84971;DHT22;75278;51.926;4.562;2024-03-08T05:33:06;3.1;80
84971;DHT22;75278;51.926;4.562;2024-03-08T05:35:06;3.1;80
84971;DHT22;75278;51.926;4.562;2024-03-08T05:37:06;3.0;80
84971;DHT22;75278;51.926;4.562;2024-03-08T05:39:06;3.1;80
84971;DHT22;75278;51.926;4.562;2024-03-08T05:41:06;3.0;80
84971;DHT22;75278;51.926;4.562;2024-03-08T05:43:06;3.0;80
84971;DHT22;75278;51.926;4.562;2024-03-08T05:45:06;3.0;81
84971;DHT22;75278;51.926;4.562;2024-03-08T05:47:06;3.0;81
84971;DHT22;75278;51.926;4.562;2024-03-08T05:49:06;3.0;81
84971;DHT22;75278;51.926;4.562;2024-03-08T05:51:06;3.0;80
84971;DHT22;75278;51.926;4.562;2024-03-08T05:53:06;3.0;81
84971;DHT22;75278;51.926;4.562;2024-03-08T05:55:06;3.0;81
84971;DHT22;75278;51.926;4.562;2024-03-08T05:57:06;2.9;81
84971;DHT22;75278;51.926;4.562;2024-03-08T05:59:06;2.9;81
84971;DHT22;75278;51.926;4.562;2024-03-08T06:01:06;2.9;81
84971;DHT22;75278;51.926;4.562;2024-03-08T06:03:06;2.9;81
84971;DHT22;75278;51.926;4.562;2024-03-08T06:05:07;2.9;81
84971;DHT22;75278;51.926;4.562;2024-03-08T06:07:06;2.9;81
84971;DHT22;75278;51.926;4.562;2024-03-08T06:09:06;2.9;81
84971;DHT22;75278;51.926;4.562;2024-03-08T06:11:06;3.0;80
84971;DHT22;75278;51.926;4.562;2024-03-08T06:13:06;2.9;80
84971;DHT22;75278;51.926;4.562;2024-03-08T06:15:06;3.0;80
84971;DHT22;75278;51.926;4.562;2024-03-08T06:17:06;3.0;80
84971;DHT22;75278;51.926;4.562;2024-03-08T06:19:06;3.0;80
84971;DHT22;75278;51.926;4.562;2024-03-08T06:21:06;3.0;80
84971;DHT22;75278;51.926;4.562;2024-03-08T06:23:06;3.0;80
84971;DHT22;75278;51.926;4.562;2024-03-08T06:25:06;3.0;80
84971;DHT22;75278;51.926;4.562;2024-03-08T06:27:06;3.0;80
84971;DHT22;75278;51.926;4.562;2024-03-08T06:29:06;3.0;80
84971;DHT22;75278;51.926;4.562;2024-03-08T06:31:06;3.0;80
84971;DHT22;75278;51.926;4.562;2024-03-08T06:33:06;3.0;80
84971;DHT22;75278;51.926;4.562;2024-03-08T06:35:06;3.0;80
84971;DHT22;75278;51.926;4.562;2024-03-08T06:37:06;3.1;80
84971;DHT22;75278;51.926;4.562;2024-03-08T06:39:06;3.1;79
84971;DHT22;75278;51.926;4.562;2024-03-08T06:41:06;3.1;79
84971;DHT22;75278;51.926;4.562;2024-03-08T06:43:06;3.2;79
84971;DHT22;75278;51.926;4.562;2024-03-08T06:45:06;3.2;79
84971;DHT22;75278;51.926;4.562;2024-03-08T06:47:06;3.3;79
84971;DHT22;75278;51.926;4.562;2024-03-08T06:49:06;3.3;78
84971;DHT22;75278;51.926;4.562;2024-03-08T06:51:06;3.3;78
84971;DHT22;75278;51.926;4.562;2024-03-08T06:53:06;3.4;78
84971;DHT22;75278;51.926;4.562;2024-03-08T06:55:06;3.4;78
84971;DHT22;75278;51.926;4.562;2024-03-08T06:57:06;3.5;78
84971;DHT22;75278;51.926;4.562;2024-03-08T06:59:06;3.6;78
84971;DHT22;75278;51.926;4.562;2024-03-08T07:01:06;3.6;78
84971;DHT22;75278;51.926;4.562;2024-03-08T07:03:07;3.5;77
84971;DHT22;75278;51.926;4.562;2024-03-08T07:05:06;3.6;77
84971;DHT22;75278;51.926;4.562;2024-03-08T07:07:06;3.7;78
84971;DHT22;75278;51.926;4.562;2024-03-08T07:09:06;3.8;77
84971;DHT22;75278;51.926;4.562;2024-03-08T07:11:06;3.9;77
84971;DHT22;75278;51.926;4.562;2024-03-08T07:13:06;3.9;77
84971;DHT22;75278;51.926;4.562;2024-03-08T07:15:06;4.1;77
84971;DHT22;75278;51.926;4.562;2024-03-08T07:17:06;4.2;76
84971;DHT22;75278;51.926;4.562;2024-03-08T07:19:06;4.3;75
84971;DHT22;75278;51.926;4.562;2024-03-08T07:21:06;4.4;75
84971;DHT22;75278;51.926;4.562;2024-03-08T07:23:06;4.5;74
84971;DHT22;75278;51.926;4.562;2024-03-08T07:25:06;4.6;74
84971;DHT22;75278;51.926;4.562;2024-03-08T07:27:06;4.6;74
84971;DHT22;75278;51.926;4.562;2024-03-08T07:29:06;4.6;74
84971;DHT22;75278;51.926;4.562;2024-03-08T07:31:06;4.6;74
84971;DHT22;75278;51.926;4.562;2024-03-08T07:33:06;4.6;73
84971;DHT22;75278;51.926;4.562;2024-03-08T07:35:06;4.6;74
84971;DHT22;75278;51.926;4.562;2024-03-08T07:37:06;4.6;73
84971;DHT22;75278;51.926;4.562;2024-03-08T07:39:06;4.7;74
84971;DHT22;75278;51.926;4.562;2024-03-08T07:41:06;4.8;73
84971;DHT22;75278;51.926;4.562;2024-03-08T07:43:06;4.7;73
84971;DHT22;75278;51.926;4.562;2024-03-08T07:45:06;4.7;73
84971;DHT22;75278;51.926;4.562;2024-03-08T07:47:06;4.7;73
84971;DHT22;75278;51.926;4.562;2024-03-08T07:49:06;4.8;73
84971;DHT22;75278;51.926;4.562;2024-03-08T07:51:06;4.8;73
84971;DHT22;75278;51.926;4.562;2024-03-08T07:53:06;4.9;72
84971;DHT22;75278;51.926;4.562;2024-03-08T07:55:06;5.0;72
84971;DHT22;75278;51.926;4.562;2024-03-08T07:57:06;4.9;72
84971;DHT22;75278;51.926;4.562;2024-03-08T07:59:06;5.0;72
84971;DHT22;75278;51.926;4.562;2024-03-08T08:01:06;5.1;72
84971;DHT22;75278;51.926;4.562;2024-03-08T08:03:06;5.5;71
84971;DHT22;75278;51.926;4.562;2024-03-08T08:05:06;6.1;70
84971;DHT22;75278;51.926;4.562;2024-03-08T08:07:06;6.2;68
84971;DHT22;75278;51.926;4.562;2024-03-08T08:09:06;6.7;69
84971;DHT22;75278;51.926;4.562;2024-03-08T08:11:06;7.3;66
84971;DHT22;75278;51.926;4.562;2024-03-08T08:13:06;7.8;64
84971;DHT22;75278;51.926;4.562;2024-03-08T08:15:06;8.4;62
84971;DHT22;75278;51.926;4.562;2024-03-08T08:17:06;8.8;61
84971;DHT22;75278;51.926;4.562;2024-03-08T08:19:06;8.9;59
84971;DHT22;75278;51.926;4.562;2024-03-08T08:21:06;9.2;59
84971;DHT22;75278;51.926;4.562;2024-03-08T08:23:06;9.5;57
84971;DHT22;75278;51.926;4.562;2024-03-08T08:25:06;9.6;57
84971;DHT22;75278;51.926;4.562;2024-03-08T08:27:06;9.7;56
84971;DHT22;75278;51.926;4.562;2024-03-08T08:29:06;9.6;55
84971;DHT22;75278;51.926;4.562;2024-03-08T08:31:06;9.7;56
84971;DHT22;75278;51.926;4.562;2024-03-08T08:33:06;10.0;56
84971;DHT22;75278;51.926;4.562;2024-03-08T08:35:06;9.7;54
84971;DHT22;75278;51.926;4.562;2024-03-08T08:37:06;10.2;56
84971;DHT22;75278;51.926;4.562;2024-03-08T08:39:06;10.2;54
84971;DHT22;75278;51.926;4.562;2024-03-08T08:41:06;10.5;55
84971;DHT22;75278;51.926;4.562;2024-03-08T08:43:06;10.4;53
84971;DHT22;75278;51.926;4.562;2024-03-08T08:45:06;10.7;53
84971;DHT22;75278;51.926;4.562;2024-03-08T08:47:06;10.9;54
84971;DHT22;75278;51.926;4.562;2024-03-08T08:49:06;11.3;52
84971;DHT22;75278;51.926;4.562;2024-03-08T08:51:06;11.5;51
84971;DHT22;75278;51.926;4.562;2024-03-08T08:53:06;11.3;50
84971;DHT22;75278;51.926;4.562;2024-03-08T08:55:06;10.4;52
84971;DHT22;75278;51.926;4.562;2024-03-08T08:57:06;9.9;54
84971;DHT22;75278;51.926;4.562;2024-03-08T08:59:06;9.7;55
84971;DHT22;75278;51.926;4.562;2024-03-08T09:01:06;9.4;54
84971;DHT22;75278;51.926;4.562;2024-03-08T09:03:06;9.3;56
84971;DHT22;75278;51.926;4.562;2024-03-08T09:05:06;9.4;55
84971;DHT22;75278;51.926;4.562;2024-03-08T09:07:06;9.4;56
84971;DHT22;75278;51.926;4.562;2024-03-08T09:09:06;9.7;56
84971;DHT22;75278;51.926;4.562;2024-03-08T09:11:06;9.8;56
84971;DHT22;75278;51.926;4.562;2024-03-08T09:13:06;9.9;55
84971;DHT22;75278;51.926;4.562;2024-03-08T09:15:06;9.9;54
84971;DHT22;75278;51.926;4.562;2024-03-08T09:17:06;9.6;55
84971;DHT22;75278;51.926;4.562;2024-03-08T09:19:06;9.7;55
84971;DHT22;75278;51.926;4.562;2024-03-08T09:21:06;9.4;56
84971;DHT22;75278;51.926;4.562;2024-03-08T09:23:06;9.8;57
84971;DHT22;75278;51.926;4.562;2024-03-08T09:25:06;9.8;56
84971;DHT22;75278;51.926;4.562;2024-03-08T09:27:06;9.6;56
84971;DHT22;75278;51.926;4.562;2024-03-08T09:29:06;9.5;56
84971;DHT22;75278;51.926;4.562;2024-03-08T09:31:06;9.5;56
84971;DHT22;75278;51.926;4.562;2024-03-08T09:33:06;9.5;57
84971;DHT22;75278;51.926;4.562;2024-03-08T09:35:06;9.5;57
84971;DHT22;75278;51.926;4.562;2024-03-08T09:37:06;9.5;56
84971;DHT22;75278;51.926;4.562;2024-03-08T09:39:06;9.4;56
84971;DHT22;75278;51.926;4.562;2024-03-08T09:41:06;9.3;56
84971;DHT22;75278;51.926;4.562;2024-03-08T09:43:06;9.3;57
84971;DHT22;75278;51.926;4.562;2024-03-08T09:45:08;9.3;57
84971;DHT22;75278;51.926;4.562;2024-03-08T09:47:06;9.2;57
84971;DHT22;75278;51.926;4.562;2024-03-08T09:49:06;9.1;58
84971;DHT22;75278;51.926;4.562;2024-03-08T09:51:06;9.0;58
84971;DHT22;75278;51.926;4.562;2024-03-08T09:53:06;9.0;58
84971;DHT22;75278;51.926;4.562;2024-03-08T09:55:06;8.8;59
84971;DHT22;75278;51.926;4.562;2024-03-08T09:57:06;8.6;59
84971;DHT22;75278;51.926;4.562;2024-03-08T09:59:06;8.6;60
84971;DHT22;75278;51.926;4.562;2024-03-08T10:01:06;8.6;60
84971;DHT22;75278;51.926;4.562;2024-03-08T10:03:06;8.5;60
84971;DHT22;75278;51.926;4.562;2024-03-08T10:05:08;8.3;60
84971;DHT22;75278;51.926;4.562;2024-03-08T10:07:06;8.1;60
84971;DHT22;75278;51.926;4.562;2024-03-08T10:09:06;8.0;61
84971;DHT22;75278;51.926;4.562;2024-03-08T10:11:06;7.9;61
84971;DHT22;75278;51.926;4.562;2024-03-08T10:13:06;7.9;62
84971;DHT22;75278;51.926;4.562;2024-03-08T10:15:06;8.0;63
84971;DHT22;75278;51.926;4.562;2024-03-08T10:17:06;7.9;62
84971;DHT22;75278;51.926;4.562;2024-03-08T10:19:06;7.8;62
84971;DHT22;75278;51.926;4.562;2024-03-08T10:21:06;8.0;64
84971;DHT22;75278;51.926;4.562;2024-03-08T10:23:06;8.0;62
84971;DHT22;75278;51.926;4.562;2024-03-08T10:25:06;8.0;62
84971;DHT22;75278;51.926;4.562;2024-03-08T10:27:06;7.9;63
84971;DHT22;75278;51.926;4.562;2024-03-08T10:29:06;7.9;63
84971;DHT22;75278;51.926;4.562;2024-03-08T10:31:06;8.0;62
84971;DHT22;75278;51.926;4.562;2024-03-08T10:33:06;8.0;63
84971;DHT22;75278;51.926;4.562;2024-03-08T10:35:06;8.0;63
84971;DHT22;75278;51.926;4.562;2024-03-08T10:37:06;8.0;63
84971;DHT22;75278;51.926;4.562;2024-03-08T10:39:06;7.9;62
84971;DHT22;75278;51.926;4.562;2024-03-08T10:41:06;7.8;63
84971;DHT22;75278;51.926;4.562;2024-03-08T10:43:06;7.7;63
84971;DHT22;75278;51.926;4.562;2024-03-08T10:45:09;7.9;64
84971;DHT22;75278;51.926;4.562;2024-03-08T10:47:08;8.0;63
84971;DHT22;75278;51.926;4.562;2024-03-08T10:49:06;8.1;63
84971;DHT22;75278;51.926;4.562;2024-03-08T10:51:06;8.1;62
84971;DHT22;75278;51.926;4.562;2024-03-08T10:53:06;8.0;62
84971;DHT22;75278;51.926;4.562;2024-03-08T10:55:06;8.1;63
84971;DHT22;75278;51.926;4.562;2024-03-08T10:57:06;8.2;63
84971;DHT22;75278;51.926;4.562;2024-03-08T10:59:06;8.3;62
84971;DHT22;75278;51.926;4.562;2024-03-08T11:01:06;8.2;62
84971;DHT22;75278;51.926;4.562;2024-03-08T11:03:06;8.3;63
84971;DHT22;75278;51.926;4.562;2024-03-08T11:05:07;8.4;62
84971;DHT22;75278;51.926;4.562;2024-03-08T11:07:06;8.6;62
84971;DHT22;75278;51.926;4.562;2024-03-08T11:09:08;8.8;62
84971;DHT22;75278;51.926;4.562;2024-03-08T11:11:09;9.0;61
84971;DHT22;75278;51.926;4.562;2024-03-08T11:13:08;8.8;59
84971;DHT22;75278;51.926;4.562;2024-03-08T11:17:07;8.7;60
84971;DHT22;75278;51.926;4.562;2024-03-08T11:19:06;8.8;60
84971;DHT22;75278;51.926;4.562;2024-03-08T11:21:07;8.9;61
84971;DHT22;75278;51.926;4.562;2024-03-08T11:23:06;9.1;61
84971;DHT22;75278;51.926;4.562;2024-03-08T11:25:09;9.1;59
84971;DHT22;75278;51.926;4.562;2024-03-08T11:27:06;9.0;60
84971;DHT22;75278;51.926;4.562;2024-03-08T11:33:06;9.3;59
84971;DHT22;75278;51.926;4.562;2024-03-08T11:35:06;9.4;58
84971;DHT22;75278;51.926;4.562;2024-03-08T11:37:07;9.4;58
84971;DHT22;75278;51.926;4.562;2024-03-08T11:39:06;9.4;58
84971;DHT22;75278;51.926;4.562;2024-03-08T11:41:06;9.4;58
84971;DHT22;75278;51.926;4.562;2024-03-08T11:43:06;9.3;58
84971;DHT22;75278;51.926;4.562;2024-03-08T11:45:08;9.4;59
84971;DHT22;75278;51.926;4.562;2024-03-08T11:47:08;9.5;59
84971;DHT22;75278;51.926;4.562;2024-03-08T11:49:06;9.5;58
84971;DHT22;75278;51.926;4.562;2024-03-08T11:51:06;9.6;59
84971;DHT22;75278;51.926;4.562;2024-03-08T11:53:06;9.7;58
84971;DHT22;75278;51.926;4.562;2024-03-08T11:55:06;9.8;59
84971;DHT22;75278;51.926;4.562;2024-03-08T11:57:06;9.8;58
84971;DHT22;75278;51.926;4.562;2024-03-08T11:59:06;9.7;58
84971;DHT22;75278;51.926;4.562;2024-03-08T12:01:06;9.7;58
84971;DHT22;75278;51.926;4.562;2024-03-08T12:03:06;9.8;59
84971;DHT22;75278;51.926;4.562;2024-03-08T12:05:06;9.8;58
84971;DHT22;75278;51.926;4.562;2024-03-08T12:07:09;9.8;58
84971;DHT22;75278;51.926;4.562;2024-03-08T12:09:08;10.0;58
84971;DHT22;75278;51.926;4.562;2024-03-08T12:11:06;10.1;58
84971;DHT22;75278;51.926;4.562;2024-03-08T12:13:06;10.2;57
84971;DHT22;75278;51.926;4.562;2024-03-08T12:15:06;10.2;56
84971;DHT22;75278;51.926;4.562;2024-03-08T12:17:06;10.1;56
84971;DHT22;75278;51.926;4.562;2024-03-08T12:19:06;10.0;56
84971;DHT22;75278;51.926;4.562;2024-03-08T12:21:06;10.1;56
84971;DHT22;75278;51.926;4.562;2024-03-08T12:23:14;10.1;57
84971;DHT22;75278;51.926;4.562;2024-03-08T12:25:06;10.2;57
84971;DHT22;75278;51.926;4.562;2024-03-08T12:31:06;10.2;57
84971;DHT22;75278;51.926;4.562;2024-03-08T12:33:06;10.3;57
84971;DHT22;75278;51.926;4.562;2024-03-08T12:35:07;10.4;57
84971;DHT22;75278;51.926;4.562;2024-03-08T12:37:06;10.4;57
84971;DHT22;75278;51.926;4.562;2024-03-08T12:39:06;10.5;57
84971;DHT22;75278;51.926;4.562;2024-03-08T12:41:06;10.6;56
84971;DHT22;75278;51.926;4.562;2024-03-08T12:43:06;10.6;55
84971;DHT22;75278;51.926;4.562;2024-03-08T12:45:06;10.6;53
84971;DHT22;75278;51.926;4.562;2024-03-08T12:47:06;10.6;54
84971;DHT22;75278;51.926;4.562;2024-03-08T12:49:07;10.6;55
84971;DHT22;75278;51.926;4.562;2024-03-08T12:51:06;10.5;54
84971;DHT22;75278;51.926;4.562;2024-03-08T12:53:06;10.5;55
84971;DHT22;75278;51.926;4.562;2024-03-08T12:55:06;10.6;55
84971;DHT22;75278;51.926;4.562;2024-03-08T12:57:06;10.6;54
84971;DHT22;75278;51.926;4.562;2024-03-08T12:59:07;10.6;55
84971;DHT22;75278;51.926;4.562;2024-03-08T13:01:06;10.7;55
84971;DHT22;75278;51.926;4.562;2024-03-08T13:03:06;10.7;54
84971;DHT22;75278;51.926;4.562;2024-03-08T13:05:06;10.7;55
84971;DHT22;75278;51.926;4.562;2024-03-08T13:07:06;10.8;54
84971;DHT22;75278;51.926;4.562;2024-03-08T13:09:06;10.6;54
84971;DHT22;75278;51.926;4.562;2024-03-08T13:11:06;10.6;55
84971;DHT22;75278;51.926;4.562;2024-03-08T13:13:06;10.7;54
84971;DHT22;75278;51.926;4.562;2024-03-08T13:15:06;10.6;54
84971;DHT22;75278;51.926;4.562;2024-03-08T13:17:06;10.6;54
84971;DHT22;75278;51.926;4.562;2024-03-08T13:19:06;10.5;55
84971;DHT22;75278;51.926;4.562;2024-03-08T13:21:06;10.5;55
84971;DHT22;75278;51.926;4.562;2024-03-08T13:23:06;10.6;55
84971;DHT22;75278;51.926;4.562;2024-03-08T13:25:06;10.5;54
84971;DHT22;75278;51.926;4.562;2024-03-08T13:27:06;10.5;55
84971;DHT22;75278;51.926;4.562;2024-03-08T13:29:06;10.5;54
84971;DHT22;75278;51.926;4.562;2024-03-08T13:31:06;10.6;54
84971;DHT22;75278;51.926;4.562;2024-03-08T13:33:06;10.7;55
84971;DHT22;75278;51.926;4.562;2024-03-08T13:35:06;10.7;54
84971;DHT22;75278;51.926;4.562;2024-03-08T13:37:06;10.8;55
84971;DHT22;75278;51.926;4.562;2024-03-08T13:39:06;10.9;54
84971;DHT22;75278;51.926;4.562;2024-03-08T13:41:06;10.9;53
84971;DHT22;75278;51.926;4.562;2024-03-08T13:43:06;11.0;54
84971;DHT22;75278;51.926;4.562;2024-03-08T13:45:07;11.0;54